Time;durP1;ratioP1;P1;durP2;ratioP2;P2;SDS_P1;SDS_P2;PMS_P1;PMS_P2;Temp;Humidity;BMP_temperature;BMP_pressure;BME280_temperature;BME280_humidity;BME280_pressure;Samples;Min_cycle;Max_cycle;Signal;HPM_P1;HPM_P2
2023/11/26 00:01:30;;;;;;;0.32;0.32;;;0.30;99.90;;;;;;4948193;29;20031;-87
2023/11/26 00:03:56;;;;;;;1.30;1.20;;;0.40;99.90;;;;;;4947005;29;20035;-87
2023/11/26 00:06:23;;;;;;;0.08;0.08;;;0.40;99.90;;;;;;4944306;29;20038;-85
2023/11/26 00:08:49;;;;;;;0.45;0.40;;;0.30;99.90;;;;;;4946651;28;20058;-86
2023/11/26 00:11:15;;;;;;;0.50;0.50;;;0.30;99.90;;;;;;4931403;29;20050;-85
2023/11/26 00:13:42;;;;;;;0.03;0.03;;;0.30;99.90;;;;;;4941416;29;20393;-85
2023/11/26 00:16:11;;;;;;;2.13;1.52;;;0.30;99.90;;;;;;4940558;29;20366;-81
2023/11/26 00:18:38;;;;;;;9.38;2.13;;;0.10;99.90;;;;;;4946614;29;20056;-85
2023/11/26 00:21:04;;;;;;;0.20;0.20;;;0.00;99.90;;;;;;4949410;29;20374;-84
2023/11/26 00:23:30;;;;;;;0.10;0.10;;;-0.10;99.90;;;;;;4942716;29;20036;-87
2023/11/26 00:25:56;;;;;;;0.43;0.43;;;-0.20;99.90;;;;;;4943932;29;20032;-85
2023/11/26 00:28:23;;;;;;;0.10;0.10;;;-0.10;99.90;;;;;;4946096;29;20035;-86
2023/11/26 00:30:49;;;;;;;0.57;0.57;;;-0.10;99.90;;;;;;4947979;29;20066;-85
2023/11/26 00:33:18;;;;;;;0.30;0.30;;;0.00;99.90;;;;;;4944508;29;20469;-85
2023/11/26 00:35:46;;;;;;;0.43;0.43;;;0.00;99.90;;;;;;4941356;29;20047;-84
2023/11/26 00:38:12;;;;;;;0.20;0.20;;;-0.10;99.90;;;;;;4946564;29;20035;-81
2023/11/26 00:40:39;;;;;;;0.30;0.30;;;0.00;99.90;;;;;;4945328;29;20039;-85
2023/11/26 00:43:05;;;;;;;1.75;1.48;;;0.00;99.90;;;;;;4930665;29;20043;-85
2023/11/26 00:45:31;;;;;;;0.55;0.55;;;-0.10;99.90;;;;;;4926382;29;20078;-85
2023/11/26 00:48:00;;;;;;;1.30;1.15;;;-0.10;99.90;;;;;;4940753;29;20036;-86
2023/11/26 00:50:26;;;;;;;1.77;1.55;;;-0.30;99.90;;;;;;4957623;28;20811;-84
2023/11/26 00:52:52;;;;;;;0.20;0.20;;;-0.30;99.90;;;;;;4972329;29;20023;-82
2023/11/26 00:55:19;;;;;;;2.20;0.63;;;-0.40;99.90;;;;;;4930681;29;20066;-86
2023/11/26 00:57:46;;;;;;;0.43;0.43;;;-0.40;99.90;;;;;;4944259;29;20046;-85
2023/11/26 01:00:12;;;;;;;0.13;0.13;;;-0.30;99.90;;;;;;4932127;29;20041;-81
2023/11/26 01:02:41;;;;;;;0.20;0.17;;;-0.40;99.90;;;;;;4944851;29;20039;-85
2023/11/26 01:05:08;;;;;;;0.00;0.00;;;-0.40;99.90;;;;;;4936384;28;20958;-85
2023/11/26 01:07:34;;;;;;;0.70;0.70;;;-0.50;99.90;;;;;;4910573;29;20039;-84
2023/11/26 01:10:00;;;;;;;5.15;1.02;;;-0.50;99.90;;;;;;4933544;29;20035;-85
2023/11/26 01:12:27;;;;;;;1.55;1.38;;;-0.50;99.90;;;;;;4949216;29;20476;-85
2023/11/26 01:14:54;;;;;;;1.23;1.00;;;-0.50;99.90;;;;;;4946683;29;20043;-84
2023/11/26 01:17:21;;;;;;;4.32;1.52;;;-0.50;99.90;;;;;;4940366;29;20043;-84
2023/11/26 01:19:47;;;;;;;0.30;0.30;;;-0.60;99.90;;;;;;4962981;29;20034;-82
2023/11/26 01:22:13;;;;;;;2.25;2.05;;;-0.50;99.90;;;;;;4941687;29;20058;-81
2023/11/26 01:24:39;;;;;;;1.23;0.98;;;-0.40;99.90;;;;;;4944751;29;20039;-84
2023/11/26 01:27:05;;;;;;;1.05;0.80;;;-0.30;99.90;;;;;;4928004;29;20042;-84
2023/11/26 01:29:33;;;;;;;0.30;0.30;;;-0.20;99.90;;;;;;4924767;29;20039;-85
2023/11/26 01:31:59;;;;;;;0.28;0.28;;;-0.20;99.90;;;;;;4940362;29;20039;-84
2023/11/26 01:34:25;;;;;;;0.10;0.10;;;-0.40;99.90;;;;;;4928525;29;20031;-84
2023/11/26 01:36:51;;;;;;;1.05;1.05;;;-0.50;99.90;;;;;;4945656;29;20035;-84
2023/11/26 01:39:17;;;;;;;0.77;0.43;;;-0.50;99.90;;;;;;4923837;29;20516;-82
2023/11/26 01:41:44;;;;;;;0.40;0.30;;;-0.50;99.90;;;;;;4943015;29;20043;-84
2023/11/26 01:44:10;;;;;;;0.28;0.28;;;-0.50;99.90;;;;;;4944798;29;20100;-84
2023/11/26 01:46:37;;;;;;;0.00;0.00;;;-0.60;99.90;;;;;;4944217;29;20027;-84
2023/11/26 01:49:03;;;;;;;1.17;0.57;;;-0.60;99.90;;;;;;4944716;29;20044;-84
2023/11/26 01:51:32;;;;;;;1.20;0.77;;;-0.70;99.90;;;;;;4940235;29;20032;-84
2023/11/26 01:54:00;;;;;;;1.35;1.25;;;-0.70;99.90;;;;;;4939108;29;20055;-83
2023/11/26 01:56:26;;;;;;;0.00;0.00;;;-0.70;99.90;;;;;;4945160;29;20400;-83
2023/11/26 01:58:55;;;;;;;0.35;0.35;;;-0.60;99.90;;;;;;4945476;29;20396;-83
2023/11/26 02:01:22;;;;;;;0.00;0.00;;;-0.50;99.90;;;;;;4925057;29;20048;-84
2023/11/26 02:03:48;;;;;;;0.32;0.25;;;-0.40;99.90;;;;;;4943637;29;20031;-83
2023/11/26 02:06:16;;;;;;;0.30;0.30;;;-0.30;99.90;;;;;;4949227;29;20034;-81
2023/11/26 02:08:42;;;;;;;0.08;0.08;;;-0.40;99.90;;;;;;4943289;29;20043;-84
2023/11/26 02:11:08;;;;;;;0.00;0.00;;;-0.40;99.90;;;;;;4926844;29;20052;-83
2023/11/26 02:13:48;;;;;;;0.28;0.28;;;-0.30;99.90;;;;;;4920448;29;20044;-83
2023/11/26 02:16:14;;;;;;;0.40;0.40;;;-0.30;99.90;;;;;;4943610;29;20492;-80
2023/11/26 02:18:41;;;;;;;0.40;0.40;;;-0.30;99.90;;;;;;4943987;29;20055;-84
2023/11/26 02:21:08;;;;;;;0.25;0.25;;;-0.20;99.90;;;;;;4942987;29;20051;-84
2023/11/26 02:23:36;;;;;;;0.10;0.10;;;-0.30;99.90;;;;;;4927300;29;20051;-83
2023/11/26 02:26:05;;;;;;;1.60;1.38;;;-0.30;99.90;;;;;;4938999;29;20047;-84
2023/11/26 02:28:32;;;;;;;0.52;0.52;;;-0.20;99.90;;;;;;4944604;29;20039;-84
2023/11/26 02:30:59;;;;;;;1.55;1.17;;;-0.10;99.90;;;;;;4948226;29;20032;-84
2023/11/26 02:33:25;;;;;;;0.10;0.10;;;-0.10;99.90;;;;;;4942684;29;20036;-84
2023/11/26 02:35:51;;;;;;;0.32;0.32;;;-0.10;99.90;;;;;;4947422;29;20043;-84
2023/11/26 02:38:17;;;;;;;0.65;0.65;;;-0.10;99.90;;;;;;4955701;29;20405;-80
2023/11/26 02:40:44;;;;;;;1.17;1.08;;;0.00;99.90;;;;;;4950841;29;20385;-82
2023/11/26 02:43:10;;;;;;;1.02;1.02;;;0.00;99.90;;;;;;4949171;29;20391;-83
2023/11/26 02:45:36;;;;;;;0.10;0.10;;;0.00;99.90;;;;;;4945556;29;20036;-84
2023/11/26 02:48:02;;;;;;;0.57;0.57;;;0.10;99.90;;;;;;4948201;29;20036;-84
2023/11/26 02:50:29;;;;;;;0.10;0.10;;;0.10;99.90;;;;;;4945674;29;20043;-83
2023/11/26 02:52:55;;;;;;;0.55;0.55;;;0.10;99.90;;;;;;4932405;29;20043;-84
2023/11/26 02:55:21;;;;;;;0.10;0.10;;;0.10;99.90;;;;;;4944833;29;20035;-83
2023/11/26 02:57:48;;;;;;;0.57;0.55;;;0.10;99.90;;;;;;4943749;29;20043;-84
2023/11/26 03:00:20;;;;;;;0.47;0.47;;;0.20;99.90;;;;;;4930719;29;20048;-84
2023/11/26 03:02:47;;;;;;;0.55;0.55;;;0.20;99.90;;;;;;4950657;29;20051;-84
2023/11/26 03:05:21;;;;;;;0.10;0.10;;;0.20;99.90;;;;;;4946309;29;20035;-84
2023/11/26 03:07:51;;;;;;;0.38;0.38;;;0.30;99.90;;;;;;4941162;29;20509;-84
2023/11/26 03:13:12;;;;;;;3.80;0.75;;;0.30;99.90;;;;;;4949824;29;20039;-83
2023/11/26 03:15:40;;;;;;;0.32;0.32;;;0.30;99.90;;;;;;4949631;29;20027;-84
2023/11/26 03:18:12;;;;;;;0.10;0.10;;;0.30;99.90;;;;;;4940656;29;20060;-82
2023/11/26 03:20:41;;;;;;;0.08;0.08;;;0.30;99.90;;;;;;4946981;29;20043;-85
2023/11/26 03:23:09;;;;;;;1.00;0.55;;;0.40;99.90;;;;;;4948457;29;20046;-85
2023/11/26 03:25:36;;;;;;;0.03;0.03;;;0.50;99.90;;;;;;4948787;29;20035;-84
2023/11/26 03:28:04;;;;;;;1.45;0.45;;;0.50;99.90;;;;;;4944699;29;20040;-84
2023/11/26 03:30:31;;;;;;;1.52;1.08;;;0.60;99.90;;;;;;4956562;29;20031;-85
2023/11/26 03:32:57;;;;;;;0.20;0.20;;;0.60;99.90;;;;;;4964334;29;20038;-85
2023/11/26 03:35:25;;;;;;;1.17;1.10;;;0.60;99.90;;;;;;4962822;29;20142;-82
2023/11/26 03:37:53;;;;;;;0.82;0.73;;;0.50;99.90;;;;;;4945311;29;20040;-85
2023/11/26 03:40:20;;;;;;;0.20;0.20;;;0.50;99.90;;;;;;4938051;29;20047;-81
2023/11/26 03:42:47;;;;;;;0.45;0.45;;;0.50;99.90;;;;;;4931711;29;20039;-85
2023/11/26 03:45:13;;;;;;;0.10;0.10;;;0.50;99.90;;;;;;4944313;29;20486;-85
2023/11/26 03:47:40;;;;;;;0.22;0.22;;;0.60;99.90;;;;;;4947995;29;20591;-86
2023/11/26 03:50:12;;;;;;;0.90;0.90;;;0.60;99.90;;;;;;4923211;29;20408;-86
2023/11/26 03:52:39;;;;;;;0.00;0.00;;;0.60;99.90;;;;;;4945398;29;20036;-87
2023/11/26 03:55:08;;;;;;;3.17;0.82;;;0.70;99.90;;;;;;4930875;29;20059;-86
2023/11/26 03:57:35;;;;;;;0.70;0.70;;;0.80;99.90;;;;;;4948963;29;20050;-86
2023/11/26 04:00:08;;;;;;;0.73;0.43;;;0.80;99.90;;;;;;4940945;29;20413;-88
2023/11/26 04:02:39;;;;;;;1.70;1.30;;;0.80;99.90;;;;;;4945950;28;20043;-86
2023/11/26 04:05:07;;;;;;;0.55;0.55;;;0.90;99.90;;;;;;4930985;29;20043;-85
2023/11/26 04:07:34;;;;;;;0.32;0.32;;;0.90;99.90;;;;;;4943288;29;20032;-84
2023/11/26 04:10:06;;;;;;;0.77;0.70;;;0.90;99.90;;;;;;4941899;29;20389;-86
2023/11/26 04:12:33;;;;;;;0.75;0.75;;;1.00;99.90;;;;;;4946703;29;20039;-86
2023/11/26 04:15:03;;;;;;;0.57;0.57;;;0.90;99.90;;;;;;4949076;29;20032;-88
2023/11/26 04:17:30;;;;;;;0.95;0.82;;;0.90;99.90;;;;;;4946475;29;20068;-85
2023/11/26 04:19:56;;;;;;;0.13;0.13;;;0.90;99.90;;;;;;4949541;29;20059;-87
2023/11/26 04:22:23;;;;;;;0.10;0.10;;;0.90;99.90;;;;;;4963227;29;20036;-81
2023/11/26 04:24:50;;;;;;;1.70;0.75;;;0.90;99.90;;;;;;4954609;29;20050;-87
2023/11/26 04:27:17;;;;;;;0.30;0.30;;;0.90;99.90;;;;;;4947494;29;20027;-87
2023/11/26 04:29:44;;;;;;;0.40;0.40;;;0.90;99.90;;;;;;4949178;29;20038;-85
2023/11/26 04:32:11;;;;;;;1.25;1.20;;;1.00;99.90;;;;;;4943878;29;20100;-87
2023/11/26 04:34:37;;;;;;;0.40;0.40;;;0.90;99.90;;;;;;4940139;29;20491;-86
2023/11/26 04:37:08;;;;;;;0.20;0.20;;;1.00;99.90;;;;;;4947869;29;20035;-87
2023/11/26 04:39:35;;;;;;;0.30;0.30;;;1.00;99.90;;;;;;4944844;29;20051;-88
2023/11/26 04:42:02;;;;;;;0.65;0.65;;;1.00;99.90;;;;;;4927436;29;20380;-87
2023/11/26 04:44:28;;;;;;;2.47;0.40;;;1.10;99.90;;;;;;4942714;29;20027;-86
2023/11/26 04:46:55;;;;;;;1.40;0.25;;;1.00;99.90;;;;;;4946838;29;20047;-84
2023/11/26 04:49:21;;;;;;;0.32;0.32;;;0.90;99.90;;;;;;4945338;29;20480;-82
2023/11/26 04:51:47;;;;;;;1.75;1.05;;;0.90;99.90;;;;;;4943314;29;20050;-84
2023/11/26 04:54:13;;;;;;;10.88;1.88;;;0.90;99.90;;;;;;4925355;29;20054;-85
2023/11/26 04:56:40;;;;;;;0.10;0.10;;;1.00;99.90;;;;;;4944857;29;20043;-85
2023/11/26 04:59:06;;;;;;;0.55;0.40;;;1.10;99.90;;;;;;4946060;29;20042;-87
2023/11/26 05:01:44;;;;;;;0.57;0.57;;;1.10;99.90;;;;;;4928823;29;20043;-86
2023/11/26 05:04:13;;;;;;;0.17;0.17;;;1.10;99.90;;;;;;4942728;29;20063;-85
2023/11/26 05:06:39;;;;;;;3.53;1.08;;;1.10;99.90;;;;;;4943812;29;20031;-86
2023/11/26 05:09:11;;;;;;;0.70;0.70;;;1.10;99.90;;;;;;4945704;29;20384;-85
2023/11/26 05:11:44;;;;;;;0.45;0.45;;;1.20;99.90;;;;;;4946543;29;20035;-85
2023/11/26 05:14:10;;;;;;;1.17;1.08;;;1.20;99.90;;;;;;4943936;29;20046;-85
2023/11/26 05:16:40;;;;;;;0.30;0.30;;;1.20;99.90;;;;;;4942752;29;20031;-86
2023/11/26 05:19:06;;;;;;;0.73;0.73;;;1.20;99.90;;;;;;4944741;29;20047;-86
2023/11/26 05:21:32;;;;;;;0.20;0.20;;;1.30;99.90;;;;;;4945923;29;20035;-86
2023/11/26 05:23:58;;;;;;;1.20;1.10;;;1.20;99.90;;;;;;4945141;29;20495;-86
2023/11/26 05:26:26;;;;;;;1.75;0.70;;;1.20;99.90;;;;;;4925293;29;20046;-82
2023/11/26 05:28:52;;;;;;;0.17;0.17;;;1.20;99.90;;;;;;4939889;29;20055;-85
2023/11/26 05:31:18;;;;;;;0.10;0.10;;;1.20;99.90;;;;;;4946754;29;20047;-85
2023/11/26 05:33:45;;;;;;;0.50;0.40;;;1.20;99.90;;;;;;4944221;29;20039;-85
2023/11/26 05:36:11;;;;;;;0.20;0.20;;;1.20;99.90;;;;;;4941832;29;20047;-86
2023/11/26 05:38:37;;;;;;;0.38;0.38;;;1.20;99.90;;;;;;4942454;28;20044;-86
2023/11/26 05:41:03;;;;;;;0.55;0.55;;;1.20;99.90;;;;;;4953623;29;20031;-86
2023/11/26 05:43:30;;;;;;;0.73;0.73;;;1.20;99.90;;;;;;4959215;29;20062;-84
2023/11/26 05:45:56;;;;;;;0.20;0.20;;;1.30;99.90;;;;;;4955768;29;20031;-84
2023/11/26 05:48:23;;;;;;;0.28;0.28;;;1.30;99.90;;;;;;4945602;29;20036;-84
2023/11/26 05:50:49;;;;;;;0.45;0.45;;;1.30;99.90;;;;;;4945823;29;20054;-85
2023/11/26 05:53:15;;;;;;;2.63;1.92;;;1.30;99.90;;;;;;4946006;29;20038;-85
2023/11/26 05:55:41;;;;;;;0.20;0.20;;;1.30;99.90;;;;;;4943468;29;20034;-87
2023/11/26 05:58:07;;;;;;;0.55;0.43;;;1.30;99.90;;;;;;4941674;29;20036;-85
2023/11/26 06:00:33;;;;;;;0.43;0.43;;;1.40;99.90;;;;;;4940980;29;20393;-86
2023/11/26 06:03:00;;;;;;;0.55;0.55;;;1.40;99.90;;;;;;4945618;29;20032;-86
2023/11/26 06:05:26;;;;;;;0.15;0.15;;;1.50;99.90;;;;;;4929722;29;20027;-81
2023/11/26 06:07:52;;;;;;;1.63;1.52;;;1.60;99.90;;;;;;4947311;29;20352;-82
2023/11/26 06:10:19;;;;;;;0.30;0.30;;;1.60;99.90;;;;;;4942085;29;20043;-86
2023/11/26 06:12:45;;;;;;;0.52;0.52;;;1.60;99.90;;;;;;4947786;29;20027;-86
2023/11/26 06:15:11;;;;;;;0.55;0.55;;;1.60;99.90;;;;;;4951909;29;20039;-86
2023/11/26 06:17:38;;;;;;;1.13;1.10;;;1.60;99.90;;;;;;4920874;29;20055;-86
2023/11/26 06:20:05;;;;;;;0.32;0.32;;;1.70;99.90;;;;;;4908205;29;20044;-85
2023/11/26 06:22:31;;;;;;;2.85;2.17;;;1.80;99.90;;;;;;4908852;29;20402;-85
2023/11/26 06:24:57;;;;;;;0.73;0.70;;;1.80;99.90;;;;;;4915479;29;20055;-86
2023/11/26 06:27:26;;;;;;;1.30;1.20;;;1.80;99.90;;;;;;4914886;29;20032;-85
2023/11/26 06:29:53;;;;;;;0.70;0.70;;;1.80;99.90;;;;;;4923297;29;20048;-86
2023/11/26 06:32:19;;;;;;;0.50;0.50;;;1.80;99.90;;;;;;4908007;29;20413;-85
2023/11/26 06:34:46;;;;;;;1.48;0.85;;;1.80;99.90;;;;;;4908869;29;20389;-85
2023/11/26 06:37:12;;;;;;;0.50;0.50;;;1.90;99.90;;;;;;4912087;29;20438;-86
2023/11/26 06:39:38;;;;;;;0.90;0.70;;;1.90;99.90;;;;;;4906758;29;20036;-86
2023/11/26 06:42:05;;;;;;;1.35;1.27;;;1.90;99.90;;;;;;4905368;29;20027;-85
2023/11/26 06:44:31;;;;;;;1.50;1.40;;;1.90;99.90;;;;;;4921922;29;20043;-82
2023/11/26 06:46:59;;;;;;;1.48;1.45;;;1.80;99.90;;;;;;4927925;29;20052;-86
2023/11/26 06:49:27;;;;;;;11.50;3.83;;;1.80;99.90;;;;;;4909328;29;20052;-86
2023/11/26 06:51:55;;;;;;;2.03;1.92;;;1.80;99.90;;;;;;4908906;29;20041;-86
2023/11/26 06:54:22;;;;;;;3.72;1.73;;;1.80;99.90;;;;;;4907933;29;20133;-86
2023/11/26 06:56:48;;;;;;;1.70;1.60;;;1.80;99.90;;;;;;4912527;29;20037;-85
2023/11/26 06:59:14;;;;;;;1.80;1.30;;;1.80;99.90;;;;;;4910061;29;20056;-85
2023/11/26 07:01:41;;;;;;;3.17;2.55;;;1.80;99.90;;;;;;4910082;29;20037;-85
2023/11/26 07:04:07;;;;;;;0.98;0.98;;;1.80;99.90;;;;;;4922255;29;20036;-85
2023/11/26 07:06:33;;;;;;;1.65;1.55;;;1.90;99.90;;;;;;4908459;29;20036;-86
2023/11/26 07:09:00;;;;;;;0.75;0.75;;;1.90;99.90;;;;;;4911327;29;20047;-86
2023/11/26 07:11:28;;;;;;;1.05;1.05;;;1.90;99.90;;;;;;4908992;29;20040;-86
2023/11/26 07:13:55;;;;;;;2.95;1.67;;;1.90;99.90;;;;;;4906099;29;20029;-85
2023/11/26 07:16:21;;;;;;;1.35;1.25;;;1.90;99.90;;;;;;4922844;29;20044;-86
2023/11/26 07:18:48;;;;;;;0.90;0.88;;;1.90;99.90;;;;;;4937473;28;20650;-86
2023/11/26 07:21:14;;;;;;;1.00;0.98;;;1.90;99.90;;;;;;4948579;29;20054;-87
2023/11/26 07:23:41;;;;;;;0.20;0.20;;;2.00;99.90;;;;;;4949295;29;20046;-87
2023/11/26 07:26:20;;;;;;;2.17;1.60;;;2.00;99.90;;;;;;4945063;29;20042;-85
2023/11/26 07:28:50;;;;;;;5.00;2.38;;;2.00;99.90;;;;;;4947022;29;20053;-85
2023/11/26 07:31:22;;;;;;;0.55;0.55;;;2.00;99.90;;;;;;4949770;29;20039;-86
2023/11/26 07:33:50;;;;;;;0.70;0.55;;;2.00;99.90;;;;;;4946606;29;20038;-86
2023/11/26 07:36:22;;;;;;;1.02;0.95;;;2.00;99.90;;;;;;4928392;29;20374;-86
2023/11/26 07:38:52;;;;;;;2.40;1.38;;;2.10;99.90;;;;;;4944607;29;20039;-86
2023/11/26 07:41:20;;;;;;;5.60;3.30;;;2.10;99.90;;;;;;4948355;29;20043;-87
2023/11/26 07:43:49;;;;;;;1.00;1.00;;;2.20;99.90;;;;;;4943599;29;20294;-88
2023/11/26 07:46:15;;;;;;;2.70;0.75;;;2.10;99.90;;;;;;4943024;29;20035;-87
2023/11/26 07:48:48;;;;;;;1.08;0.98;;;2.20;99.90;;;;;;4942314;29;20035;-87
2023/11/26 07:51:15;;;;;;;1.58;1.48;;;2.20;99.90;;;;;;4949126;29;20043;-86
2023/11/26 07:53:41;;;;;;;4.68;2.20;;;2.20;99.90;;;;;;4947568;28;20047;-86
2023/11/26 07:56:08;;;;;;;4.13;2.28;;;2.20;99.90;;;;;;4946925;29;20050;-86
2023/11/26 07:58:34;;;;;;;3.63;2.90;;;2.20;99.90;;;;;;4943304;29;20039;-85
2023/11/26 08:01:02;;;;;;;2.38;2.20;;;2.20;99.90;;;;;;4947415;29;20034;-85
2023/11/26 08:03:32;;;;;;;2.50;1.55;;;2.30;99.90;;;;;;4947439;29;20136;-85
2023/11/26 08:06:06;;;;;;;1.23;1.20;;;2.20;99.90;;;;;;4944132;29;20042;-85
2023/11/26 08:08:36;;;;;;;3.72;1.05;;;2.30;99.90;;;;;;4942398;29;20035;-83
2023/11/26 08:11:04;;;;;;;0.68;0.63;;;2.30;99.90;;;;;;4946214;29;20043;-85
2023/11/26 08:13:33;;;;;;;4.07;2.95;;;2.40;99.90;;;;;;4948898;29;20066;-83
2023/11/26 08:16:00;;;;;;;1.73;1.60;;;2.40;99.90;;;;;;4946764;29;20492;-87
2023/11/26 08:18:26;;;;;;;1.45;1.35;;;2.40;99.90;;;;;;4943170;28;20055;-84
2023/11/26 08:20:58;;;;;;;1.42;1.33;;;2.40;99.90;;;;;;4943319;29;20035;-83
2023/11/26 08:23:24;;;;;;;1.17;1.08;;;2.50;99.90;;;;;;4948187;29;20035;-82
2023/11/26 08:25:51;;;;;;;0.93;0.93;;;2.50;99.90;;;;;;4947247;29;20255;-81
2023/11/26 08:28:27;;;;;;;0.93;0.93;;;2.60;99.90;;;;;;4928410;29;20047;-82
2023/11/26 08:30:53;;;;;;;0.25;0.20;;;2.60;99.90;;;;;;4943547;28;20050;-83
2023/11/26 08:33:22;;;;;;;0.73;0.73;;;2.60;99.90;;;;;;4943756;29;20038;-84
2023/11/26 08:35:57;;;;;;;1.27;1.17;;;2.80;99.90;;;;;;4945203;29;20046;-84
2023/11/26 08:38:24;;;;;;;0.30;0.30;;;2.90;99.90;;;;;;4942836;29;20039;-84
2023/11/26 08:40:54;;;;;;;0.60;0.60;;;3.00;99.90;;;;;;4942364;29;20051;-84
2023/11/26 08:43:21;;;;;;;0.73;0.73;;;3.20;99.90;;;;;;4945703;29;20042;-85
2023/11/26 08:45:47;;;;;;;2.33;1.05;;;3.40;99.90;;;;;;4948244;29;20039;-85
2023/11/26 08:48:17;;;;;;;6.30;3.13;;;3.40;99.90;;;;;;4948389;29;20039;-83
2023/11/26 08:50:44;;;;;;;3.90;3.00;;;3.40;99.90;;;;;;4927051;29;20047;-85
2023/11/26 08:53:12;;;;;;;3.17;2.88;;;3.50;99.90;;;;;;4950614;29;20365;-83
2023/11/26 08:55:38;;;;;;;2.63;2.45;;;3.40;99.90;;;;;;4948887;29;20048;-82
2023/11/26 08:58:05;;;;;;;7.25;6.35;;;3.40;99.90;;;;;;4931857;29;20046;-83
2023/11/26 09:00:31;;;;;;;5.35;4.72;;;3.40;99.90;;;;;;4948798;29;20042;-84
2023/11/26 09:02:57;;;;;;;4.85;1.63;;;3.40;99.90;;;;;;4944919;29;20042;-83
2023/11/26 09:05:24;;;;;;;1.90;1.80;;;3.40;99.90;;;;;;4944688;29;20035;-83
2023/11/26 09:07:50;;;;;;;1.77;1.60;;;3.50;99.90;;;;;;4944581;29;20035;-83
2023/11/26 09:10:19;;;;;;;3.17;2.40;;;3.50;99.90;;;;;;4942803;29;20464;-83
2023/11/26 09:12:45;;;;;;;1.58;1.48;;;3.60;99.90;;;;;;4941316;29;20043;-83
2023/11/26 09:15:12;;;;;;;0.85;0.85;;;3.60;99.90;;;;;;4928798;29;20031;-83
2023/11/26 09:17:39;;;;;;;1.50;1.40;;;3.60;99.90;;;;;;4926782;29;20066;-82
2023/11/26 09:20:11;;;;;;;1.73;1.55;;;3.60;99.90;;;;;;4946074;29;20043;-83
2023/11/26 09:22:39;;;;;;;1.02;0.98;;;3.70;99.90;;;;;;4941397;29;20039;-83
2023/11/26 09:25:13;;;;;;;0.52;0.52;;;3.70;99.90;;;;;;4941657;29;20054;-81
2023/11/26 09:27:40;;;;;;;1.75;1.65;;;3.70;99.90;;;;;;4945029;29;20512;-83
2023/11/26 09:30:10;;;;;;;1.17;1.17;;;3.80;99.90;;;;;;4929826;29;20035;-81
2023/11/26 09:32:37;;;;;;;2.42;1.13;;;3.70;99.90;;;;;;4938722;29;20035;-81
2023/11/26 09:35:04;;;;;;;0.38;0.38;;;3.70;99.90;;;;;;4942515;29;20035;-81
2023/11/26 09:37:30;;;;;;;4.88;2.45;;;3.70;99.90;;;;;;4927393;29;20040;-79
2023/11/26 09:39:56;;;;;;;1.23;1.15;;;3.80;99.90;;;;;;4928260;29;20035;-80
2023/11/26 09:42:24;;;;;;;2.10;1.40;;;3.80;99.90;;;;;;4943399;29;20508;-80
2023/11/26 09:44:51;;;;;;;1.35;1.25;;;3.90;99.90;;;;;;4940024;29;20667;-80
2023/11/26 09:47:18;;;;;;;4.38;1.75;;;4.00;99.90;;;;;;4924436;29;20047;-82
2023/11/26 09:49:45;;;;;;;0.22;0.22;;;4.00;99.90;;;;;;4944051;29;20052;-81
2023/11/26 09:52:12;;;;;;;0.60;0.60;;;4.10;99.90;;;;;;4946171;29;20380;-80
2023/11/26 09:54:38;;;;;;;1.73;1.63;;;4.10;99.90;;;;;;4924859;29;20574;-81
2023/11/26 09:57:07;;;;;;;1.85;1.58;;;4.20;99.90;;;;;;4944594;28;20051;-81
2023/11/26 09:59:34;;;;;;;1.90;1.80;;;4.30;99.90;;;;;;4943437;29;20047;-81
2023/11/26 10:02:02;;;;;;;1.55;1.30;;;4.30;99.90;;;;;;4944022;29;20040;-81
2023/11/26 10:04:46;;;;;;;1.65;1.58;;;4.40;99.90;;;;;;4939773;29;20031;-81
2023/11/26 10:07:13;;;;;;;0.90;0.68;;;4.50;99.90;;;;;;4929833;29;20035;-83
2023/11/26 10:09:39;;;;;;;2.38;1.52;;;4.50;99.90;;;;;;4943800;29;20047;-87
2023/11/26 10:12:06;;;;;;;0.65;0.65;;;4.50;99.90;;;;;;4948240;29;20058;-82
2023/11/26 10:14:32;;;;;;;3.53;1.42;;;4.60;99.90;;;;;;4943399;29;20035;-84
2023/11/26 10:17:14;;;;;;;1.10;0.95;;;4.60;99.90;;;;;;4927962;29;20040;-80
2023/11/26 10:19:40;;;;;;;0.57;0.50;;;4.70;99.90;;;;;;4933987;29;20388;-80
2023/11/26 10:22:07;;;;;;;2.50;2.33;;;4.70;99.90;;;;;;4912287;29;20063;-80
2023/11/26 10:24:33;;;;;;;1.90;1.33;;;4.80;99.90;;;;;;4944084;29;20043;-79
2023/11/26 10:26:59;;;;;;;0.57;0.57;;;4.80;99.90;;;;;;4939268;29;20055;-79
2023/11/26 10:29:30;;;;;;;2.20;1.65;;;4.80;99.90;;;;;;4940637;29;20097;-79
2023/11/26 10:32:06;;;;;;;0.73;0.73;;;4.90;99.90;;;;;;4942834;29;20036;-81
2023/11/26 10:34:35;;;;;;;2.85;1.65;;;4.90;99.90;;;;;;4927065;29;20042;-79
2023/11/26 10:37:21;;;;;;;0.43;0.43;;;4.90;99.90;;;;;;4943750;29;20043;-79
2023/11/26 10:39:52;;;;;;;1.23;0.60;;;5.00;99.90;;;;;;4941941;29;20055;-79
2023/11/26 10:42:19;;;;;;;1.95;1.23;;;5.00;99.90;;;;;;4926693;29;20047;-79
2023/11/26 10:44:53;;;;;;;6.25;2.58;;;5.00;99.90;;;;;;4945735;29;20039;-79
2023/11/26 10:47:20;;;;;;;1.58;1.13;;;5.10;99.90;;;;;;4942068;29;20036;-79
2023/11/26 10:49:51;;;;;;;1.45;1.35;;;5.20;99.90;;;;;;4942103;29;20039;-80
2023/11/26 10:52:45;;;;;;;1.65;1.55;;;5.20;99.90;;;;;;4941948;29;20035;-78
2023/11/26 10:55:24;;;;;;;3.83;1.30;;;5.30;99.90;;;;;;4917749;29;20043;-79
2023/11/26 10:58:07;;;;;;;0.63;0.63;;;5.40;99.90;;;;;;4939705;29;20039;-78
2023/11/26 11:00:36;;;;;;;1.27;1.17;;;5.50;99.90;;;;;;4945548;29;20040;-83
2023/11/26 11:03:02;;;;;;;1.67;1.58;;;5.50;99.90;;;;;;4933135;29;20408;-84
2023/11/26 11:05:30;;;;;;;1.60;1.00;;;5.60;99.90;;;;;;4948923;28;20059;-85
2023/11/26 11:07:59;;;;;;;2.30;1.17;;;5.70;99.90;;;;;;4931901;29;20035;-85
2023/11/26 11:10:44;;;;;;;0.75;0.75;;;5.80;99.90;;;;;;4926836;29;20058;-85
2023/11/26 11:13:16;;;;;;;0.70;0.70;;;5.90;99.90;;;;;;4949012;29;20385;-84
2023/11/26 11:15:43;;;;;;;1.30;1.20;;;5.90;99.90;;;;;;4951029;29;20043;-86
2023/11/26 11:18:28;;;;;;;1.65;1.50;;;5.70;94.90;;;;;;4932283;29;20055;-85
2023/11/26 11:21:16;;;;;;;1.45;0.50;;;5.70;52.20;;;;;;4948395;29;20043;-84
2023/11/26 11:23:47;;;;;;;13.32;1.20;;;5.60;99.90;;;;;;4955382;29;20035;-85
2023/11/26 11:26:15;;;;;;;2.20;1.48;;;5.70;99.90;;;;;;4953593;28;20051;-84
2023/11/26 11:28:50;;;;;;;3.50;1.55;;;5.70;99.90;;;;;;4946327;29;20030;-83
2023/11/26 11:31:21;;;;;;;1.08;1.08;;;5.80;99.90;;;;;;4963518;28;20035;-84
2023/11/26 11:33:59;;;;;;;;;;;5.90;99.90;;;;;;4955952;28;20039;-84
2023/11/26 11:36:52;;;;;;;1.10;0.68;;;6.00;99.90;;;;;;4923370;29;19910;-83
2023/11/26 11:39:21;;;;;;;0.20;0.20;;;6.10;99.90;;;;;;4935143;28;20046;-85
2023/11/26 11:42:14;;;;;;;1.33;1.23;;;6.10;99.90;;;;;;4957964;28;20028;-84
2023/11/26 11:44:43;;;;;;;1.15;1.05;;;6.00;1.00;;;;;;4932715;28;20051;-83
2023/11/26 11:47:41;;;;;;;3.13;0.95;;;6.00;1.00;;;;;;4950982;29;20038;-83
2023/11/26 11:50:08;;;;;;;1.17;0.95;;;5.90;1.00;;;;;;4955870;28;20038;-84
2023/11/26 11:52:34;;;;;;;2.15;1.02;;;5.90;99.90;;;;;;4939080;28;20048;-83
2023/11/26 11:55:20;;;;;;;1.52;1.42;;;5.90;1.00;;;;;;4947757;28;20052;-82
2023/11/26 11:57:48;;;;;;;1.17;0.68;;;5.90;1.00;;;;;;4962536;28;20039;-83
2023/11/26 12:00:23;;;;;;;0.30;0.30;;;5.90;1.00;;;;;;4960774;28;20050;-82
2023/11/26 12:02:52;;;;;;;0.38;0.38;;;5.90;99.90;;;;;;4953192;28;20051;-82
2023/11/26 12:05:28;;;;;;;2.17;1.75;;;5.90;99.90;;;;;;4937476;28;20047;-82
2023/11/26 12:07:58;;;;;;;0.45;0.45;;;6.00;99.90;;;;;;4952720;28;20031;-83
2023/11/26 12:10:25;;;;;;;0.40;0.40;;;6.00;99.90;;;;;;4957109;28;20043;-83
2023/11/26 12:13:04;;;;;;;0.95;0.82;;;6.00;99.90;;;;;;4940440;28;20070;-82
2023/11/26 12:15:30;;;;;;;1.38;1.27;;;6.00;99.90;;;;;;4952934;28;20492;-82
2023/11/26 12:17:59;;;;;;;3.35;0.68;;;6.00;99.90;;;;;;4953812;28;20050;-82
2023/11/26 12:20:26;;;;;;;0.30;0.30;;;6.00;99.90;;;;;;4949615;28;20043;-82
2023/11/26 12:22:52;;;;;;;0.65;0.50;;;5.90;99.90;;;;;;4932420;29;20039;-82
2023/11/26 12:25:21;;;;;;;0.30;0.30;;;5.90;99.90;;;;;;4937018;28;20051;-81
2023/11/26 12:28:09;;;;;;;0.40;0.40;;;5.90;99.90;;;;;;4955072;28;20489;-82
2023/11/26 12:30:37;;;;;;;0.52;0.52;;;5.80;99.90;;;;;;4952339;28;20055;-82
2023/11/26 12:33:03;;;;;;;0.50;0.50;;;5.90;99.90;;;;;;4938574;28;20050;-83
2023/11/26 12:35:30;;;;;;;0.30;0.30;;;5.90;99.90;;;;;;4939987;28;20070;-82
2023/11/26 12:38:01;;;;;;;0.25;0.25;;;5.90;99.90;;;;;;4937762;28;20043;-81
2023/11/26 12:40:29;;;;;;;0.57;0.57;;;6.00;99.90;;;;;;4941660;28;20055;-81
2023/11/26 12:42:56;;;;;;;0.47;0.47;;;6.00;99.90;;;;;;4933037;29;20146;-81
2023/11/26 12:45:23;;;;;;;0.17;0.17;;;6.00;99.90;;;;;;4953292;28;20047;-81
2023/11/26 12:47:54;;;;;;;0.25;0.25;;;6.00;99.90;;;;;;4943731;28;20050;-81
2023/11/26 12:50:21;;;;;;;;;;;5.90;99.90;;;;;;4952653;28;20058;-79
2023/11/26 12:52:51;;;;;;;0.30;0.30;;;5.80;99.90;;;;;;4936465;28;19910;-78
2023/11/26 12:55:19;;;;;;;0.75;0.75;;;5.80;99.90;;;;;;4956359;28;20396;-78
2023/11/26 12:57:45;;;;;;;0.95;0.95;;;5.70;99.90;;;;;;4952653;28;20051;-79
2023/11/26 13:00:14;;;;;;;3.92;1.48;;;5.60;99.90;;;;;;4937901;28;20043;-78
2023/11/26 13:02:48;;;;;;;1.30;1.20;;;5.60;1.00;;;;;;4936129;28;20043;-80
2023/11/26 13:05:26;;;;;;;1.23;0.60;;;5.60;1.00;;;;;;4935439;28;21568;-79